Time;durP1;ratioP1;P1;durP2;ratioP2;P2;SDS_P1;SDS_P2;PMS_P1;PMS_P2;Temp;Humidity;BMP_temperature;BMP_pressure;BME280_temperature;BME280_humidity;BME280_pressure;Samples;Min_cycle;Max_cycle;Signal;HPM_P1;HPM_P2
2023/06/07 00:02:04;;;;;;;;;;;14.10;99.90;;;;;;4926916;29;19934;-67
2023/06/07 00:04:39;;;;;;;;;;;14.00;99.90;;;;;;4943950;28;19930;-68
2023/06/07 00:07:12;;;;;;;;;;;13.90;99.90;;;;;;4945738;28;19934;-67
2023/06/07 00:09:44;;;;;;;;;;;14.00;99.90;;;;;;4933525;29;19952;-67
2023/06/07 00:12:11;;;;;;;;;;;13.90;99.90;;;;;;4947279;29;19926;-68
2023/06/07 00:14:43;;;;;;;;;;;13.90;99.90;;;;;;4934330;29;19938;-67
2023/06/07 00:17:15;;;;;;;;;;;13.90;99.90;;;;;;4944313;28;19937;-67
2023/06/07 00:19:42;;;;;;;;;;;13.90;99.90;;;;;;4940377;29;19931;-67
2023/06/07 00:22:14;;;;;;;;;;;13.90;99.90;;;;;;4937796;28;19935;-67
2023/06/07 00:24:46;;;;;;;;;;;13.70;99.90;;;;;;4940939;29;19926;-67
2023/06/07 00:27:18;;;;;;;;;;;13.70;99.90;;;;;;4947007;29;20415;-66
2023/06/07 00:29:45;;;;;;;;;;;13.60;99.90;;;;;;4933280;29;19957;-66
2023/06/07 00:32:17;;;;;;;;;;;13.60;99.90;;;;;;4924860;29;19927;-66
2023/06/07 00:34:48;;;;;;;;;;;13.60;99.90;;;;;;4935981;29;19954;-67
2023/06/07 00:37:15;;;;;;;;;;;13.60;99.90;;;;;;4916293;29;19952;-67
2023/06/07 00:39:47;;;;;;;;;;;13.60;99.90;;;;;;4919133;29;19933;-67
2023/06/07 00:42:19;;;;;;;;;;;13.60;99.90;;;;;;4927485;29;20414;-67
2023/06/07 00:44:51;;;;;;;;;;;13.50;99.90;;;;;;4922447;29;20302;-67
2023/06/07 00:47:23;;;;;;;;;;;13.50;99.90;;;;;;4921210;29;19926;-67
2023/06/07 00:49:55;;;;;;;;;;;13.50;99.90;;;;;;4931303;29;19926;-66
2023/06/07 00:52:27;;;;;;;;;;;13.50;99.90;;;;;;4942053;29;19933;-66
2023/06/07 00:55:01;;;;;;;;;;;13.50;99.90;;;;;;4925334;29;19991;-66
2023/06/07 00:57:33;;;;;;;;;;;13.40;99.90;;;;;;4946158;29;19926;-66
2023/06/07 01:00:04;;;;;;;;;;;13.40;99.90;;;;;;4961259;23;19926;-64
2023/06/07 01:02:36;;;;;;;;;;;13.40;99.90;;;;;;4925351;29;20035;-64
2023/06/07 01:05:07;;;;;;;;;;;13.30;99.90;;;;;;4924714;29;19965;-64
2023/06/07 01:07:41;;;;;;;;;;;13.30;99.90;;;;;;4938464;29;19927;-64
2023/06/07 01:10:14;;;;;;;;;;;13.30;99.90;;;;;;4939149;29;20459;-64
2023/06/07 01:12:47;;;;;;;;;;;13.20;99.90;;;;;;4932859;29;19934;-64
2023/06/07 01:15:20;;;;;;;;;;;13.20;99.90;;;;;;4932692;29;19934;-64
2023/06/07 01:17:53;;;;;;;;;;;13.20;99.90;;;;;;4931453;29;19933;-64
2023/06/07 01:20:26;;;;;;;;;;;13.10;99.90;;;;;;4927736;29;19927;-64
2023/06/07 01:22:57;;;;;;;;;;;13.10;99.90;;;;;;4945704;29;20395;-64
2023/06/07 01:25:29;;;;;;;;;;;13.00;99.90;;;;;;4944834;29;19966;-64
2023/06/07 01:28:01;;;;;;;;;;;13.00;99.90;;;;;;4942146;28;19937;-64
2023/06/07 01:30:31;;;;;;;;;;;13.00;99.90;;;;;;4937544;29;19933;-64
2023/06/07 01:33:04;;;;;;;;;;;13.00;99.90;;;;;;4921028;29;19937;-64
2023/06/07 01:35:38;;;;;;;;;;;12.90;99.90;;;;;;4934466;29;19935;-64
2023/06/07 01:38:12;;;;;;;;;;;12.90;99.90;;;;;;4917470;29;19926;-64
2023/06/07 01:40:44;;;;;;;;;;;12.90;99.90;;;;;;4938573;29;19927;-64
2023/06/07 01:43:13;;;;;;;;;;;12.80;99.90;;;;;;4933550;29;19926;-64
2023/06/07 01:45:45;;;;;;;;;;;12.80;99.90;;;;;;4944515;29;19926;-64
2023/06/07 01:48:18;;;;;;;;;;;12.80;99.90;;;;;;4926273;29;20414;-64
2023/06/07 01:50:49;;;;;;;;;;;12.80;99.90;;;;;;4942501;29;19926;-64
2023/06/07 01:53:21;;;;;;;;;;;12.80;99.90;;;;;;4925456;29;20022;-64
2023/06/07 01:55:59;;;;;;;;;;;12.80;99.90;;;;;;4937202;29;19989;-64
2023/06/07 01:58:33;;;;;;;;;;;12.70;99.90;;;;;;4916215;29;20080;-64
2023/06/07 02:01:08;;;;;;;;;;;12.80;99.90;;;;;;4918018;29;20437;-64
2023/06/07 02:03:43;;;;;;;;;;;12.70;99.90;;;;;;4938334;29;19978;-64
2023/06/07 02:06:18;;;;;;;;;;;12.70;99.90;;;;;;4926804;29;19927;-64
2023/06/07 02:08:53;;;;;;;;;;;12.70;99.90;;;;;;4943687;29;19927;-64
2023/06/07 02:11:25;;;;;;;;;;;12.60;99.90;;;;;;4945715;28;19931;-64
2023/06/07 02:13:57;;;;;;;;;;;12.60;99.90;;;;;;4944918;29;20610;-63
2023/06/07 02:16:32;;;;;;;;;;;12.60;99.90;;;;;;4942603;29;19931;-64
2023/06/07 02:19:07;;;;;;;;;;;12.60;99.90;;;;;;4928290;29;19930;-64
2023/06/07 02:22:06;;;;;;;;;;;12.50;99.90;;;;;;4948813;29;20056;-64
2023/06/07 02:24:38;;;;;;;;;;;12.50;99.90;;;;;;4924618;29;20343;-64
2023/06/07 02:27:10;;;;;;;;;;;12.50;99.90;;;;;;4938911;29;19934;-64
2023/06/07 02:29:42;;;;;;;;;;;12.50;99.90;;;;;;4950523;29;19931;-64
2023/06/07 02:32:13;;;;;;;;;;;12.40;99.90;;;;;;4946389;29;19930;-64
2023/06/07 02:34:47;;;;;;;;;;;12.40;99.90;;;;;;4929895;29;19933;-64
2023/06/07 02:37:19;;;;;;;;;;;12.40;99.90;;;;;;4943329;28;19931;-64
2023/06/07 02:39:51;;;;;;;;;;;12.30;99.90;;;;;;4945640;29;20095;-64
2023/06/07 02:42:22;;;;;;;;;;;12.30;99.90;;;;;;4941836;29;19931;-64
2023/06/07 02:44:49;;;;;;;;;;;12.20;99.90;;;;;;4943194;29;19933;-64
2023/06/07 02:47:21;;;;;;;;;;;12.30;99.90;;;;;;4919865;29;19927;-64
2023/06/07 02:49:52;;;;;;;;;;;12.20;99.90;;;;;;4927962;29;20017;-64
2023/06/07 02:52:25;;;;;;;;;;;12.20;99.90;;;;;;4949168;29;19930;-64
2023/06/07 02:54:53;;;;;;;;;;;12.10;99.90;;;;;;4945700;28;19933;-64
2023/06/07 02:57:25;;;;;;;;;;;12.10;99.90;;;;;;4930307;29;20379;-64
2023/06/07 02:59:56;;;;;;;;;;;12.10;99.90;;;;;;4947372;29;20009;-64
2023/06/07 03:02:42;;;;;;;;;;;12.00;99.90;;;;;;4947902;29;19930;-64
2023/06/07 03:05:13;;;;;;;;;;;11.90;99.90;;;;;;4932594;29;20343;-64
2023/06/07 03:07:50;;;;;;;;;;;11.90;99.90;;;;;;4932169;29;19930;-64
2023/06/07 03:10:23;;;;;;;;;;;12.00;99.90;;;;;;4948846;29;19926;-64
2023/06/07 03:12:55;;;;;;;;;;;12.00;99.90;;;;;;4947550;28;20038;-64
2023/06/07 03:15:28;;;;;;;;;;;12.10;99.90;;;;;;4919097;29;20696;-64
2023/06/07 03:18:01;;;;;;;;;;;12.10;99.90;;;;;;4944494;29;19931;-64
2023/06/07 03:20:36;;;;;;;;;;;12.10;99.90;;;;;;4943237;29;19937;-64
2023/06/07 03:23:13;;;;;;;;;;;12.00;99.90;;;;;;4942148;29;20021;-64
2023/06/07 03:25:48;;;;;;;;;;;12.00;99.90;;;;;;4931069;29;19934;-64
2023/06/07 03:28:24;;;;;;;;;;;12.00;99.90;;;;;;4931202;29;19954;-64
2023/06/07 03:30:57;;;;;;;;;;;11.90;99.90;;;;;;4949264;29;19927;-64
2023/06/07 03:33:38;;;;;;;;;;;12.00;99.90;;;;;;4937751;29;19962;-64
2023/06/07 03:36:11;;;;;;;;;;;12.00;99.90;;;;;;4940299;29;19934;-64
2023/06/07 03:38:41;;;;;;;;;;;12.00;99.90;;;;;;4941249;29;19935;-64
2023/06/07 03:41:13;;;;;;;;;;;12.00;99.90;;;;;;4921274;29;19942;-64
2023/06/07 03:43:45;;;;;;;;;;;12.00;99.90;;;;;;4942461;29;19988;-64
2023/06/07 03:46:12;;;;;;;;;;;12.00;99.90;;;;;;4946356;28;20419;-64
2023/06/07 03:48:44;;;;;;;;;;;12.00;99.90;;;;;;4944328;29;20484;-64
2023/06/07 03:51:16;;;;;;;;;;;12.00;99.90;;;;;;4932499;29;19926;-64
2023/06/07 03:53:48;;;;;;;;;;;11.90;99.90;;;;;;4930044;29;20025;-64
2023/06/07 03:56:15;;;;;;;;;;;11.80;99.90;;;;;;4942409;29;20013;-64
2023/06/07 03:58:48;;;;;;;;;;;11.80;99.90;;;;;;4933279;29;19982;-64
2023/06/07 04:01:25;;;;;;;;;;;11.80;99.90;;;;;;4917337;29;20033;-64
2023/06/07 04:03:57;;;;;;;;;;;11.80;99.90;;;;;;4941803;28;19949;-64
2023/06/07 04:06:29;;;;;;;;;;;11.80;99.90;;;;;;4927236;29;19938;-64
2023/06/07 04:09:03;;;;;;;;;;;11.90;99.90;;;;;;4943083;28;19930;-64
2023/06/07 04:11:35;;;;;;;;;;;11.90;99.90;;;;;;4926304;29;19934;-64
2023/06/07 04:14:07;;;;;;;;;;;11.90;99.90;;;;;;4928876;29;19966;-64
2023/06/07 04:16:35;;;;;;;;;;;11.90;99.90;;;;;;4944490;29;20335;-64
2023/06/07 04:19:06;;;;;;;;;;;11.90;99.90;;;;;;4929745;29;19936;-64
2023/06/07 04:21:38;;;;;;;;;;;12.00;99.90;;;;;;4945446;29;20030;-64
2023/06/07 04:24:10;;;;;;;;;;;12.00;99.90;;;;;;4933956;28;19927;-64
2023/06/07 04:26:42;;;;;;;;;;;11.90;99.90;;;;;;4927036;29;20515;-64
2023/06/07 04:29:14;;;;;;;;;;;11.90;99.90;;;;;;4927604;29;19934;-64
2023/06/07 04:31:49;;;;;;;;;;;11.90;99.90;;;;;;4940729;29;19927;-64
2023/06/07 04:34:21;;;;;;;;;;;11.90;99.90;;;;;;4926173;29;20029;-64
2023/06/07 04:36:53;;;;;;;;;;;12.00;99.90;;;;;;4944260;29;20498;-64
2023/06/07 04:39:25;;;;;;;;;;;12.10;99.90;;;;;;4934041;29;20373;-64
2023/06/07 04:42:01;;;;;;;;;;;12.10;99.90;;;;;;4943264;29;19927;-64
2023/06/07 04:44:36;;;;;;;;;;;12.20;99.90;;;;;;4927119;29;20288;-64
2023/06/07 04:47:13;;;;;;;;;;;12.20;99.90;;;;;;4942975;29;19934;-64
2023/06/07 04:49:46;;;;;;;;;;;12.30;99.90;;;;;;4942379;28;19982;-64
2023/06/07 04:52:20;;;;;;;;;;;12.40;99.90;;;;;;4913584;29;19930;-64
2023/06/07 04:54:59;;;;;;;;;;;12.40;99.90;;;;;;4923585;29;19927;-64
2023/06/07 04:57:32;;;;;;;;;;;12.40;99.90;;;;;;4924990;29;19927;-64
2023/06/07 05:00:06;;;;;;;;;;;12.40;99.90;;;;;;4940535;29;19935;-64
2023/06/07 05:02:43;;;;;;;;;;;12.40;99.90;;;;;;4924970;29;20048;-64
2023/06/07 05:05:17;;;;;;;;;;;12.40;99.90;;;;;;4926494;29;19946;-64
2023/06/07 05:07:50;;;;;;;;;;;12.40;99.90;;;;;;4920287;29;20450;-64
2023/06/07 05:10:22;;;;;;;;;;;12.40;99.90;;;;;;4920131;29;19965;-64
2023/06/07 05:12:49;;;;;;;;;;;12.30;99.90;;;;;;4944732;29;20311;-64
2023/06/07 05:15:21;;;;;;;;;;;12.30;99.90;;;;;;4941874;28;19927;-64
2023/06/07 05:17:54;;;;;;;;;;;12.40;99.90;;;;;;4940269;28;19958;-64
2023/06/07 05:20:26;;;;;;;;;;;12.50;99.90;;;;;;4936555;29;20021;-64
2023/06/07 05:22:59;;;;;;;;;;;12.90;99.90;;;;;;4938204;29;19961;-64
2023/06/07 05:25:33;;;;;;;;;;;13.40;99.90;;;;;;4940287;29;19931;-64
2023/06/07 05:28:01;;;;;;;;;;;13.60;99.90;;;;;;4941492;28;19934;-64
2023/06/07 05:30:33;;;;;;;;;;;13.90;99.90;;;;;;4944563;28;20348;-64
2023/06/07 05:33:05;;;;;;;;;;;14.20;99.90;;;;;;4938283;29;19934;-65
2023/06/07 05:35:37;;;;;;;;;;;14.40;99.90;;;;;;4933770;29;20026;-65
2023/06/07 05:38:09;;;;;;;;;;;14.40;99.90;;;;;;4944361;28;20369;-65
2023/06/07 05:40:41;;;;;;;;;;;14.50;99.90;;;;;;4922117;29;19930;-65
2023/06/07 05:43:12;;;;;;;;;;;14.50;99.90;;;;;;4940943;29;20017;-65
2023/06/07 05:45:44;;;;;;;;;;;14.60;99.90;;;;;;4942803;28;19926;-65
2023/06/07 05:48:16;;;;;;;;;;;14.60;99.90;;;;;;4940947;29;20342;-64
2023/06/07 05:50:48;;;;;;;;;;;14.60;99.90;;;;;;4946009;28;19927;-64
2023/06/07 05:53:20;;;;;;;;;;;14.60;99.90;;;;;;4957083;28;19926;-64
2023/06/07 05:55:53;;;;;;;;;;;14.50;99.90;;;;;;4949363;28;19927;-64
2023/06/07 05:58:26;;;;;;;;;;;14.40;99.90;;;;;;4943431;28;20041;-65
2023/06/07 06:00:59;;;;;;;;;;;14.40;99.90;;;;;;4947821;29;20478;-65
2023/06/07 06:03:31;;;;;;;;;;;14.40;99.90;;;;;;4946586;28;19934;-64
2023/06/07 06:06:14;;;;;;;;;;;14.40;99.90;;;;;;4948140;28;20016;-64
2023/06/07 06:08:45;;;;;;;;;;;14.50;99.90;;;;;;4930468;28;19934;-64
2023/06/07 06:11:17;;;;;;;;;;;14.60;99.90;;;;;;4951912;28;19928;-64
2023/06/07 06:13:50;;;;;;;;;;;14.70;99.90;;;;;;4945047;28;19960;-65
2023/06/07 06:16:22;;;;;;;;;;;14.80;99.90;;;;;;4952943;28;19935;-64
2023/06/07 06:18:53;;;;;;;;;;;14.80;99.90;;;;;;4950003;28;20431;-64
2023/06/07 06:21:25;;;;;;;;;;;14.90;99.90;;;;;;4950771;28;19962;-65
2023/06/07 06:23:57;;;;;;;;;;;14.90;99.90;;;;;;4947172;28;19934;-64
2023/06/07 06:26:29;;;;;;;;;;;14.90;99.90;;;;;;4942809;28;19938;-64
2023/06/07 06:29:01;;;;;;;;;;;15.00;99.90;;;;;;4947191;28;19933;-64
2023/06/07 06:31:27;;;;;;;;;;;14.90;99.90;;;;;;4939797;29;19965;-64
2023/06/07 06:33:59;;;;;;;;;;;14.90;99.90;;;;;;4942077;28;19941;-64
2023/06/07 06:36:26;;;;;;;;;;;14.90;99.90;;;;;;4950523;28;19927;-64
2023/06/07 06:38:58;;;;;;;;;;;14.90;99.90;;;;;;4946438;29;19926;-64
2023/06/07 06:41:30;;;;;;;;;;;15.00;99.90;;;;;;4951508;29;20411;-64
2023/06/07 06:44:03;;;;;;;;;;;15.00;99.90;;;;;;4931008;29;19927;-64
2023/06/07 06:46:35;;;;;;;;;;;15.10;99.90;;;;;;4935760;29;19952;-64
2023/06/07 06:49:07;;;;;;;;;;;15.20;99.90;;;;;;4945751;29;20371;-64
2023/06/07 06:51:39;;;;;;;;;;;15.20;99.90;;;;;;4943706;29;19930;-64
2023/06/07 06:54:11;;;;;;;;;;;15.30;99.90;;;;;;4942471;29;20355;-64
2023/06/07 06:56:38;;;;;;;;;;;15.40;99.90;;;;;;4941255;28;20449;-64
2023/06/07 06:59:10;;;;;;;;;;;15.40;99.90;;;;;;4937392;29;19931;-65
2023/06/07 07:01:45;;;;;;;;;;;15.50;99.90;;;;;;4959374;23;19973;-65
2023/06/07 07:04:18;;;;;;;;;;;15.60;99.90;;;;;;4940709;28;19955;-65
2023/06/07 07:06:50;;;;;;;;;;;15.70;99.90;;;;;;4947835;28;20410;-66
2023/06/07 07:09:22;;;;;;;;;;;15.80;99.90;;;;;;4946732;28;19926;-65
2023/06/07 07:11:49;;;;;;;;;;;15.80;99.90;;;;;;4944913;28;19933;-66
2023/06/07 07:14:21;;;;;;;;;;;16.00;99.90;;;;;;4942540;28;19934;-67
2023/06/07 07:16:53;;;;;;;;;;;16.10;99.90;;;;;;4941052;28;19937;-65
2023/06/07 07:19:24;;;;;;;;;;;16.30;99.90;;;;;;4934650;29;20029;-66
2023/06/07 07:21:58;;;;;;;;;;;16.40;99.90;;;;;;4919163;28;19934;-66
2023/06/07 07:24:30;;;;;;;;;;;16.50;99.90;;;;;;4933783;29;20005;-65
2023/06/07 07:27:01;;;;;;;;;;;16.60;99.90;;;;;;4945529;28;19931;-65
2023/06/07 07:29:33;;;;;;;;;;;16.70;99.90;;;;;;4943638;28;20707;-66
2023/06/07 07:32:05;;;;;;;;;;;16.70;99.90;;;;;;4928689;28;20002;-65
2023/06/07 07:34:32;;;;;;;;;;;16.80;99.90;;;;;;4946671;28;20659;-66
2023/06/07 07:37:02;;;;;;;;;;;16.90;99.90;;;;;;4933606;28;20026;-65
2023/06/07 07:39:29;;;;;;;;;;;17.00;99.90;;;;;;4949700;28;19934;-66
2023/06/07 07:41:56;;;;;;;;;;;17.10;99.90;;;;;;4943964;28;19927;-65
2023/06/07 07:44:22;;;;;;;;;;;17.30;99.90;;;;;;4950048;28;19962;-65
2023/06/07 07:46:54;;;;;;;;;;;17.40;99.90;;;;;;4932581;28;20422;-65
2023/06/07 07:49:21;;;;;;;;;;;17.50;99.90;;;;;;4945557;28;19974;-67
2023/06/07 07:51:48;;;;;;;;;;;17.70;99.90;;;;;;4926038;28;19938;-66
2023/06/07 07:54:20;;;;;;;;;;;17.70;99.90;;;;;;4947842;28;19926;-67
2023/06/07 07:56:52;;;;;;;;;;;17.80;99.90;;;;;;4946438;28;20376;-67
2023/06/07 07:59:24;;;;;;;;;;;17.90;99.90;;;;;;4946005;28;19926;-66
2023/06/07 08:01:56;;;;;;;;;;;18.00;99.90;;;;;;4931401;28;20407;-67
2023/06/07 08:04:28;;;;;;;;;;;18.10;99.90;;;;;;4936520;29;19931;-67
2023/06/07 08:07:00;;;;;;;;;;;18.10;99.90;;;;;;4949951;28;19933;-67
2023/06/07 08:09:32;;;;;;;;;;;18.10;99.90;;;;;;4948940;28;19927;-68
2023/06/07 08:12:04;;;;;;;;;;;18.20;99.90;;;;;;4930701;28;20021;-67
2023/06/07 08:14:31;;;;;;;;;;;18.30;99.90;;;;;;4944935;28;19934;-68
2023/06/07 08:17:02;;;;;;;;;;;18.50;99.90;;;;;;4945165;28;20399;-67
2023/06/07 08:19:35;;;;;;;;;;;18.60;99.90;;;;;;4945388;28;19942;-66
2023/06/07 08:22:08;;;;;;;;;;;18.70;99.90;;;;;;4929504;28;19942;-67
2023/06/07 08:24:40;;;;;;;;;;;18.90;99.90;;;;;;4932098;29;20375;-67
2023/06/07 08:27:07;;;;;;;;;;;19.00;99.90;;;;;;4932281;28;20414;-65
2023/06/07 08:29:39;;;;;;;;;;;19.00;99.90;;;;;;4943312;28;19935;-68
2023/06/07 08:32:11;;;;;;;;;;;19.10;99.90;;;;;;4945606;28;19934;-67
2023/06/07 08:34:44;;;;;;;;;;;19.10;99.90;;;;;;4925477;29;20388;-66
2023/06/07 08:37:11;;;;;;;;;;;19.30;99.90;;;;;;4943627;28;19930;-67
2023/06/07 08:39:43;;;;;;;;;;;19.30;99.90;;;;;;4933176;29;20025;-66
2023/06/07 08:42:15;;;;;;;;;;;19.40;99.90;;;;;;4929579;29;19933;-66
2023/06/07 08:44:48;;;;;;;;;;;19.60;99.90;;;;;;4942760;28;19927;-66
2023/06/07 08:47:20;;;;;;;;;;;19.50;99.90;;;;;;4946462;28;19931;-67
2023/06/07 08:49:48;;;;;;;;;;;19.60;99.90;;;;;;4934359;29;20411;-66
2023/06/07 08:52:16;;;;;;;;;;;19.70;99.90;;;;;;4933998;29;19997;-67
2023/06/07 08:54:48;;;;;;;;;;;19.80;99.90;;;;;;4934056;28;20018;-66
2023/06/07 08:57:20;;;;;;;;;;;19.90;99.90;;;;;;4918620;29;19978;-67
2023/06/07 08:59:52;;;;;;;;;;;20.00;99.90;;;;;;4945262;28;19933;-66
2023/06/07 09:02:25;;;;;;;;;;;20.10;99.90;;;;;;4941935;28;20410;-66
2023/06/07 09:04:57;;;;;;;;;;;20.10;99.90;;;;;;4941255;28;19934;-68
2023/06/07 09:07:30;;;;;;;;;;;20.20;99.90;;;;;;4934361;29;20314;-68
2023/06/07 09:10:02;;;;;;;;;;;20.30;99.90;;;;;;4919757;29;19933;-66
2023/06/07 09:12:35;;;;;;;;;;;20.50;99.90;;;;;;4941912;28;19927;-68
2023/06/07 09:15:07;;;;;;;;;;;20.60;99.90;;;;;;4934812;28;19927;-69
2023/06/07 09:17:53;;;;;;;;;;;20.60;99.90;;;;;;4945149;28;19953;-68
2023/06/07 09:20:28;;;;;;;;;;;20.70;99.90;;;;;;4948372;28;19927;-67
2023/06/07 09:23:04;;;;;;;;;;;20.80;99.90;;;;;;4938507;28;19938;-67
2023/06/07 09:25:31;;;;;;;;;;;20.90;99.90;;;;;;4950013;28;19942;-67
2023/06/07 09:28:03;;;;;;;;;;;21.10;99.90;;;;;;4953479;28;19926;-67
2023/06/07 09:30:36;;;;;;;;;;;21.20;99.90;;;;;;4921107;29;19926;-67
2023/06/07 09:33:09;;;;;;;;;;;21.40;99.90;;;;;;4938272;28;19938;-67
2023/06/07 09:35:43;;;;;;;;;;;21.60;99.90;;;;;;4938439;29;19927;-68
2023/06/07 09:38:25;;;;;;;;;;;21.60;99.90;;;;;;4924248;29;20284;-68
2023/06/07 09:40:53;;;;;;;;;;;21.80;99.90;;;;;;4950451;28;19931;-67
2023/06/07 09:43:25;;;;;;;;;;;22.00;99.90;;;;;;4948541;28;19926;-68
2023/06/07 09:45:53;;;;;;;;;;;22.10;99.90;;;;;;4935309;28;20387;-67
2023/06/07 09:48:24;;;;;;;;;;;22.10;99.90;;;;;;4945266;28;19986;-68
2023/06/07 09:50:59;;;;;;;;;;;22.10;99.90;;;;;;4945381;28;20374;-68
2023/06/07 09:53:47;;;;;;;;;;;22.10;99.90;;;;;;4937602;28;19927;-68
2023/06/07 09:56:21;;;;;;;;;;;22.10;99.90;;;;;;4936565;29;20017;-68
2023/06/07 09:58:51;;;;;;;;;;;22.10;99.90;;;;;;4936737;28;19949;-67
2023/06/07 10:01:31;;;;;;;;;;;22.00;99.90;;;;;;4921273;29;19927;-67
2023/06/07 10:04:06;;;;;;;;;;;22.00;99.90;;;;;;4931185;28;20307;-67
2023/06/07 10:06:45;;;;;;;;;;;22.00;99.90;;;;;;4949053;28;20327;-67
2023/06/07 10:09:17;;;;;;;;;;;22.00;99.90;;;;;;4948600;28;19934;-67
2023/06/07 10:11:52;;;;;;;;;;;22.10;99.90;;;;;;4945836;28;19927;-67
2023/06/07 10:14:28;;;;;;;;;;;22.20;99.90;;;;;;4932410;29;19926;-67
2023/06/07 10:17:10;;;;;;;;;;;22.20;99.90;;;;;;4942343;28;20278;-67
2023/06/07 10:19:48;;;;;;;;;;;22.30;99.50;;;;;;4936039;29;19931;-67
2023/06/07 10:22:23;;;;;;;;;;;22.40;99.90;;;;;;4946109;28;20011;-66
2023/06/07 10:25:01;;;;;;;;;;;22.60;99.90;;;;;;4925732;28;19949;-67
2023/06/07 10:27:38;;;;;;;;;;;22.70;99.90;;;;;;4948946;28;20505;-67
2023/06/07 10:30:13;;;;;;;;;;;22.90;99.90;;;;;;4937810;28;20018;-66
2023/06/07 10:32:41;;;;;;;;;;;23.10;99.90;;;;;;4930012;29;19934;-67
2023/06/07 10:35:15;;;;;;;;;;;23.10;98.50;;;;;;4945266;28;20021;-67
2023/06/07 10:37:53;;;;;;;;;;;23.10;98.50;;;;;;4936248;28;19950;-68
2023/06/07 10:40:21;;;;;;;;;;;23.10;99.50;;;;;;4939726;28;20006;-68
2023/06/07 10:42:48;;;;;;;;;;;23.30;97.10;;;;;;4939211;28;20021;-67
2023/06/07 10:45:20;;;;;;;;;;;23.30;96.90;;;;;;4932208;29;19977;-67
2023/06/07 10:47:51;;;;;;;;;;;23.40;96.20;;;;;;4933855;28;19934;-68
2023/06/07 10:50:26;;;;;;;;;;;23.50;96.40;;;;;;4951498;28;19937;-68
2023/06/07 10:52:55;;;;;;;;;;;23.50;95.20;;;;;;4950326;28;20025;-68
2023/06/07 10:55:27;;;;;;;;;;;23.60;95.80;;;;;;4947473;28;20403;-68
2023/06/07 10:57:54;;;;;;;;;;;23.80;94.90;;;;;;4936500;28;19926;-68
2023/06/07 11:00:30;;;;;;;;;;;23.90;95.00;;;;;;4935847;29;19938;-67
2023/06/07 11:03:02;;;;;;;;;;;24.10;94.00;;;;;;4934927;28;20037;-66
2023/06/07 11:05:49;;;;;;;;;;;24.10;93.20;;;;;;4939605;28;20179;-68
2023/06/07 11:08:26;;;;;;;;;;;24.20;91.80;;;;;;4920649;29;19930;-68
2023/06/07 11:10:58;;;;;;;;;;;24.10;91.60;;;;;;4938205;28;20343;-68
2023/06/07 11:13:39;;;;;;;;;;;24.10;92.20;;;;;;4947593;28;19933;-66
2023/06/07 11:16:35;;;;;;;;;;;24.10;91.10;;;;;;4934660;28;19930;-66
2023/06/07 11:19:09;;;;;;;;;;;24.20;92.10;;;;;;4926843;28;19937;-66
2023/06/07 11:21:53;;;;;;;;;;;24.30;89.20;;;;;;4935516;29;19931;-66
2023/06/07 11:24:25;;;;;;;;;;;24.20;90.20;;;;;;4945465;28;20021;-66
2023/06/07 11:26:57;;;;;;;;;;;24.10;90.10;;;;;;4945479;28;19926;-66
2023/06/07 11:29:30;;;;;;;;;;;24.20;89.20;;;;;;4934260;29;19937;-68
2023/06/07 11:31:58;;;;;;;;;;;24.30;90.50;;;;;;4936804;28;20026;-66
2023/06/07 11:34:30;;;;;;;;;;;24.20;86.60;;;;;;4922917;29;19931;-65
2023/06/07 11:37:09;;;;;;;;;;;24.20;85.20;;;;;;4951231;28;19938;-66
2023/06/07 11:39:43;;;;;;;;;;;24.20;85.60;;;;;;4944858;28;19931;-66
2023/06/07 11:42:15;;;;;;;;;;;24.20;88.20;;;;;;4945422;28;19981;-68
2023/06/07 11:44:47;;;;;;;;;;;24.40;87.90;;;;;;4951020;28;20017;-68
2023/06/07 11:47:19;;;;;;;;;;;24.70;85.60;;;;;;4944205;28;19935;-68
2023/06/07 11:49:46;;;;;;;;;;;24.90;85.90;;;;;;4943357;28;20014;-67
2023/06/07 11:52:12;;;;;;;;;;;25.10;83.00;;;;;;4937080;28;19937;-68
2023/06/07 11:54:44;;;;;;;;;;;25.30;83.40;;;;;;4939970;28;19931;-68
2023/06/07 11:57:16;;;;;;;;;;;25.20;79.30;;;;;;4938724;28;19927;-67
2023/06/07 11:59:50;;;;;;;;;;;25.40;80.50;;;;;;4949681;28;19934;-68
2023/06/07 12:02:17;;;;;;;;;;;25.40;79.20;;;;;;4946957;28;19933;-66
2023/06/07 12:04:49;;;;;;;;;;;25.60;80.00;;;;;;4928936;28;20395;-66
2023/06/07 12:07:29;;;;;;;;;;;25.60;79.40;;;;;;4947891;28;19927;-67
2023/06/07 12:09:56;;;;;;;;;;;25.60;79.70;;;;;;4949248;28;19926;-68
2023/06/07 12:12:28;;;;;;;;;;;25.40;80.10;;;;;;4933435;29;19934;-67
2023/06/07 12:15:00;;;;;;;;;;;25.40;80.20;;;;;;4936062;28;20307;-66
2023/06/07 12:17:36;;;;;;;;;;;25.30;80.90;;;;;;4935082;29;19957;-66
2023/06/07 12:20:12;;;;;;;;;;;25.30;80.70;;;;;;4950103;28;19926;-68
2023/06/07 12:22:43;;;;;;;;;;;25.30;79.30;;;;;;4922684;29;19953;-67
2023/06/07 12:25:16;;;;;;;;;;;24.90;78.10;;;;;;4942294;28;20323;-67
2023/06/07 12:27:48;;;;;;;;;;;24.80;79.50;;;;;;4944326;28;20422;-67
2023/06/07 12:30:20;;;;;;;;;;;24.80;80.10;;;;;;4945443;28;20422;-67
2023/06/07 12:32:59;;;;;;;;;;;25.00;80.00;;;;;;4934196;28;19934;-67
2023/06/07 12:35:27;;;;;;;;;;;24.90;78.30;;;;;;4945784;28;19976;-67
2023/06/07 12:37:59;;;;;;;;;;;24.90;79.50;;;;;;4936378;28;20386;-67
2023/06/07 12:40:33;;;;;;;;;;;25.20;78.90;;;;;;4947727;28;19983;-67
2023/06/07 12:43:05;;;;;;;;;;;25.50;76.80;;;;;;4935550;28;20033;-66
2023/06/07 12:45:37;;;;;;;;;;;25.80;78.90;;;;;;4935753;29;19938;-67
2023/06/07 12:48:09;;;;;;;;;;;26.00;80.00;;;;;;4944855;28;19933;-67
2023/06/07 12:50:36;;;;;;;;;;;26.00;77.70;;;;;;4947622;28;20138;-66
2023/06/07 12:53:08;;;;;;;;;;;26.10;78.30;;;;;;4947274;28;19934;-66
2023/06/07 12:55:40;;;;;;;;;;;26.20;75.90;;;;;;4945192;28;19942;-66
2023/06/07 12:58:07;;;;;;;;;;;26.20;76.60;;;;;;4934911;29;19933;-66
2023/06/07 13:00:39;;;;;;;;;;;26.00;76.70;;;;;;4945566;28;19934;-67
2023/06/07 13:03:11;;;;;;;;;;;26.00;75.00;;;;;;4946907;28;19927;-66
2023/06/07 13:05:40;;;;;;;;;;;25.90;75.70;;;;;;4945983;28;19926;-66
2023/06/07 13:08:13;;;;;;;;;;;26.00;74.30;;;;;;4945562;28;20125;-68
2023/06/07 13:10:45;;;;;;;;;;;26.30;73.80;;;;;;4940059;28;19931;-68
2023/06/07 13:13:17;;;;;;;;;;;26.70;73.00;;;;;;4945604;28;19927;-67
2023/06/07 13:15:49;;;;;;;;;;;27.00;71.50;;;;;;4941227;28;20323;-67
2023/06/07 13:18:22;;;;;;;;;;;27.10;74.90;;;;;;4947612;28;20424;-67
2023/06/07 13:20:54;;;;;;;;;;;27.20;74.50;;;;;;4943336;28;19933;-67
2023/06/07 13:23:21;;;;;;;;;;;27.30;74.00;;;;;;4941467;28;19927;-68
2023/06/07 13:25:48;;;;;;;;;;;27.30;72.90;;;;;;4927131;29;19966;-67
2023/06/07 13:28:20;;;;;;;;;;;27.30;72.10;;;;;;4928592;29;19980;-67
2023/06/07 13:30:46;;;;;;;;;;;27.50;72.60;;;;;;4943242;28;19927;-67
2023/06/07 13:33:18;;;;;;;;;;;27.70;69.10;;;;;;4942065;28;20425;-67
2023/06/07 13:35:50;;;;;;;;;;;27.60;67.70;;;;;;4931667;28;19941;-67
2023/06/07 13:38:22;;;;;;;;;;;27.50;67.00;;;;;;4939069;28;20422;-67
2023/06/07 13:40:54;;;;;;;;;;;27.70;69.30;;;;;;4943481;28;20418;-67
2023/06/07 13:43:21;;;;;;;;;;;27.90;66.20;;;;;;4945516;28;19939;-67
2023/06/07 13:45:53;;;;;;;;;;;28.10;65.30;;;;;;4928144;28;19926;-67
2023/06/07 13:48:25;;;;;;;;;;;28.00;64.90;;;;;;4943909;28;20376;-67
2023/06/07 13:50:51;;;;;;;;;;;27.80;64.10;;;;;;4945510;28;19926;-67
2023/06/07 13:53:23;;;;;;;;;;;27.70;65.80;;;;;;4944830;28;19930;-67
2023/06/07 13:55:56;;;;;;;;;;;27.70;64.40;;;;;;4964077;23;19933;-65
2023/06/07 13:58:32;;;;;;;;;;;27.90;65.40;;;;;;4930701;29;19949;-65
2023/06/07 14:01:03;;;;;;;;;;;28.10;64.50;;;;;;4938452;29;19938;-65
2023/06/07 14:03:35;;;;;;;;;;;28.20;63.30;;;;;;4937751;29;20407;-65
2023/06/07 14:06:07;;;;;;;;;;;28.00;63.90;;;;;;4940742;28;19926;-65
2023/06/07 14:08:39;;;;;;;;;;;28.00;63.50;;;;;;4943366;29;19933;-64
2023/06/07 14:11:11;;;;;;;;;;;28.10;64.00;;;;;;4945806;29;19931;-65
2023/06/07 14:13:43;;;;;;;;;;;28.50;63.50;;;;;;4950697;28;19927;-65
2023/06/07 14:16:15;;;;;;;;;;;28.90;63.80;;;;;;4948950;29;19926;-65
2023/06/07 14:18:47;;;;;;;;;;;29.20;61.80;;;;;;4929631;29;19949;-65
2023/06/07 14:21:14;;;;;;;;;;;29.20;60.30;;;;;;4945441;29;20323;-65
2023/06/07 14:23:45;;;;;;;;;;;29.40;61.80;;;;;;4947640;29;20395;-67
2023/06/07 14:26:17;;;;;;;;;;;29.50;58.80;;;;;;4946846;29;19933;-67
2023/06/07 14:28:49;;;;;;;;;;;29.70;58.20;;;;;;4940160;29;20303;-67
2023/06/07 14:31:21;;;;;;;;;;;29.60;56.90;;;;;;4940945;29;19931;-67
2023/06/07 14:33:53;;;;;;;;;;;29.80;55.90;;;;;;4945807;29;19930;-67
2023/06/07 14:36:25;;;;;;;;;;;29.70;56.70;;;;;;4947934;29;19930;-67
2023/06/07 14:38:57;;;;;;;;;;;29.80;55.60;;;;;;4948667;29;19926;-68
2023/06/07 14:41:28;;;;;;;;;;;29.70;56.70;;;;;;4947049;29;19937;-67
2023/06/07 14:44:00;;;;;;;;;;;29.60;55.70;;;;;;4936919;29;20315;-67
2023/06/07 14:46:32;;;;;;;;;;;29.30;58.00;;;;;;4942495;29;19927;-65